5 day graph

You are here

Error message

  • Notice: Trying to access array offset on value of type int in DrupalRequestSanitizer::stripDangerousValues() (line 102 of /home/twolittl/public_html/cms/includes/request-sanitizer.inc).
  • Notice: Trying to access array offset on value of type int in DrupalRequestSanitizer::stripDangerousValues() (line 102 of /home/twolittl/public_html/cms/includes/request-sanitizer.inc).
  • Notice: Trying to access array offset on value of type int in DrupalRequestSanitizer::stripDangerousValues() (line 102 of /home/twolittl/public_html/cms/includes/request-sanitizer.inc).
  • Notice: Trying to access array offset on value of type int in DrupalRequestSanitizer::stripDangerousValues() (line 102 of /home/twolittl/public_html/cms/includes/request-sanitizer.inc).
  • Notice: Trying to access array offset on value of type int in DrupalRequestSanitizer::stripDangerousValues() (line 102 of /home/twolittl/public_html/cms/includes/request-sanitizer.inc).
  • Notice: Trying to access array offset on value of type int in DrupalRequestSanitizer::stripDangerousValues() (line 102 of /home/twolittl/public_html/cms/includes/request-sanitizer.inc).
  • Notice: Trying to access array offset on value of type int in DrupalRequestSanitizer::stripDangerousValues() (line 102 of /home/twolittl/public_html/cms/includes/request-sanitizer.inc).
  • Notice: Trying to access array offset on value of type int in DrupalRequestSanitizer::stripDangerousValues() (line 102 of /home/twolittl/public_html/cms/includes/request-sanitizer.inc).
  • Notice: Trying to access array offset on value of type int in DrupalRequestSanitizer::stripDangerousValues() (line 102 of /home/twolittl/public_html/cms/includes/request-sanitizer.inc).
  • Notice: Trying to access array offset on value of type int in DrupalRequestSanitizer::stripDangerousValues() (line 102 of /home/twolittl/public_html/cms/includes/request-sanitizer.inc).
  • Deprecated function: Function get_magic_quotes_gpc() is deprecated in phpMyEdit->get_cgi_var() (line 1773 of /home/twolittl/public_html/phpMyEdit.class.php).
  • Deprecated function: implode(): Passing glue string after array is deprecated. Swap the parameters in drupal_get_feeds() (line 394 of /home/twolittl/public_html/cms/includes/common.inc).

Hive Data

Page: 1 of 16645  Records: 998690

Row Date Time Hive Temp Hive Humidity Outside Temp Outside Humidity Bottom Board Temp Outside Wall Temp Electronics Temp Light Levels inHG Fan Heat Cover Notes
Clear Sorted By: Fan descending, Electronics Temp ascending, Outside Wall Temp ascending, Row descending
View 341464 Jan 29 2015 12:55:28am 76.82 35 36.5 90 45.05 42.8 57.2 248 29.61 1 0 0 NA
View 266544 Nov 30 2014 6:24:00pm 68.72 43 32.18 39 52.25 36.95 59 405 29.35 1 0 0 NA
View 271195 Dec 4 2014 12:45:53am 77.18 32 44.24 39 60.35 45.5 64.4 236 29.04 1 0 0 NA
View 273616 Dec 5 2014 5:22:35pm 66.02 65 48.2 62 59 48.2 64.4 242 29.14 1 0 0 NA
View 272000 Dec 4 2014 2:16:46pm 70.52 50 47.84 63 62.15 48.65 64.4 240 29.09 1 0 0 NA
View 360212 Feb 11 2015 12:05:14pm 78.8 42 58.82 69 60.8 61.7 68 224 29.43 1 0 0 NA
View 220455 Oct 25 2014 8:30:41am 80.6 60 52.7 76 71.15 54.95 73.4 124 28.89 1 0 0 Recovery from power loss. Lost about 1 hour of data during power outage.
View 48613 Jun 8 2014 1:12:05am 88.7 37 55.4 69 63.05 59.45 73.4 0 29.46 1 0 0 NA
View 48612 Jun 8 2014 1:11:04am 88.88 42 55.58 69 63.05 59.45 73.4 0 29.46 1 0 0 NA
View 48611 Jun 8 2014 1:10:03am 88.88 45 55.58 69 63.05 59.45 73.4 0 29.46 1 0 0 NA
View 48610 Jun 8 2014 1:09:01am 88.7 39 55.76 69 63.05 59.45 73.4 0 29.46 1 0 0 NA
View 48609 Jun 8 2014 1:08:00am 88.88 38 55.76 69 63.05 59.45 73.4 0 29.46 1 0 0 NA
View 48616 Jun 8 2014 1:15:08am 88.7 35 55.4 70 63.05 59.9 73.4 0 29.46 1 0 0 NA
View 48615 Jun 8 2014 1:14:07am 88.7 37 55.4 69 63.05 59.9 73.4 0 29.46 1 0 0 NA
View 48614 Jun 8 2014 1:13:07am 88.7 37 55.4 69 63.05 59.9 73.4 0 29.46 1 0 0 NA
View 48608 Jun 8 2014 1:07:00am 89.06 38 55.58 69 63.05 59.9 73.4 0 29.46 1 0 0 NA
View 48607 Jun 8 2014 1:05:59am 89.06 43 55.76 69 63.05 59.9 73.4 0 29.46 1 0 0 NA
View 48606 Jun 8 2014 1:04:58am 89.06 38 55.76 70 63.05 59.9 73.4 0 29.45 1 0 0 NA
View 48605 Jun 8 2014 1:03:56am 89.06 45 55.76 69 63.05 59.9 73.4 0 29.46 1 0 0 NA
View 48604 Jun 8 2014 1:02:55am 89.06 39 55.94 70 63.05 59.9 73.4 0 29.45 1 0 0 NA
View 48603 Jun 8 2014 1:01:54am 89.06 37 55.76 70 63.5 59.9 73.4 0 29.46 1 0 0 NA
View 48602 Jun 8 2014 1:00:53am 89.06 37 55.76 69 63.5 59.9 73.4 0 29.46 1 0 0 NA
View 48601 Jun 8 2014 12:59:53am 89.06 38 55.76 70 63.5 59.9 73.4 0 29.46 1 0 0 NA
View 48600 Jun 8 2014 12:58:51am 89.06 41 55.94 69 63.5 59.9 73.4 0 29.46 1 0 0 NA
View 48599 Jun 8 2014 12:57:50am 89.06 40 55.94 70 63.5 59.9 73.4 0 29.46 1 0 0 NA
View 48598 Jun 8 2014 12:56:49am 89.06 38 55.94 69 63.5 59.9 73.4 0 29.46 1 0 0 NA
View 48597 Jun 8 2014 12:55:48am 89.06 36 56.12 69 63.5 59.9 73.4 0 29.46 1 0 0 NA
View 48596 Jun 8 2014 12:54:48am 89.24 36 56.12 69 63.5 59.9 73.4 0 29.46 1 0 0 NA
View 48595 Jun 8 2014 12:53:46am 89.24 36 56.3 69 63.5 59.9 73.4 0 29.46 1 0 0 NA
View 48594 Jun 8 2014 12:52:45am 89.24 37 56.3 69 63.5 59.9 73.4 0 29.46 1 0 0 NA
View 48593 Jun 8 2014 12:51:44am 89.24 42 56.3 69 63.5 60.35 73.4 0 29.46 1 0 0 NA
View 48592 Jun 8 2014 12:50:42am 89.24 36 56.3 69 63.5 60.35 73.4 0 29.46 1 0 0 NA
View 48591 Jun 8 2014 12:49:41am 89.24 38 56.3 69 63.5 60.35 73.4 0 29.46 1 0 0 NA
View 48590 Jun 8 2014 12:48:41am 89.24 44 56.3 69 63.5 60.35 73.4 0 29.46 1 0 0 NA
View 48589 Jun 8 2014 12:47:40am 89.24 37 56.3 70 63.5 60.35 73.4 0 29.46 1 0 0 NA
View 48588 Jun 8 2014 12:46:39am 89.24 35 56.3 70 63.5 60.35 73.4 0 29.46 1 0 0 NA
View 48587 Jun 8 2014 12:45:37am 89.42 35 56.3 69 63.5 60.35 73.4 0 29.46 1 0 0 NA
View 48586 Jun 8 2014 12:44:36am 89.42 36 56.3 70 63.5 60.35 73.4 0 29.46 1 0 0 NA
View 48585 Jun 8 2014 12:43:35am 89.42 36 56.3 70 63.95 60.35 73.4 0 29.46 1 0 0 NA
View 48584 Jun 8 2014 12:42:35am 89.42 36 56.3 70 63.95 60.35 73.4 0 29.46 1 0 0 NA
View 48583 Jun 8 2014 12:41:34am 89.42 37 56.3 70 63.95 60.35 73.4 0 29.45 1 0 0 NA
View 48582 Jun 8 2014 12:40:32am 89.6 37 56.3 69 63.95 60.35 73.4 0 29.45 1 0 0 NA
View 48581 Jun 8 2014 12:39:31am 89.6 36 56.3 69 63.95 60.35 73.4 0 29.46 1 0 0 NA
View 48580 Jun 8 2014 12:38:30am 89.42 47 56.3 69 63.95 60.35 73.4 0 29.46 1 0 0 NA
View 48579 Jun 8 2014 12:37:30am 89.42 43 56.3 69 63.95 60.35 73.4 0 29.46 1 0 0 NA
View 48578 Jun 8 2014 12:36:29am 89.6 36 56.3 69 63.95 60.35 73.4 0 29.46 1 0 0 NA
View 48577 Jun 8 2014 12:35:27am 89.6 36 56.48 69 63.95 60.35 73.4 0 29.46 1 0 0 NA
View 48576 Jun 8 2014 12:34:26am 89.6 36 56.48 69 63.95 60.35 73.4 0 29.46 1 0 0 NA
View 48575 Jun 8 2014 12:33:25am 89.6 35 56.48 69 63.95 60.35 73.4 0 29.46 1 0 0 NA
View 48574 Jun 8 2014 12:32:23am 89.6 36 56.48 70 63.95 60.8 73.4 0 29.46 1 0 0 NA
View 48573 Jun 8 2014 12:31:23am 89.6 43 56.48 69 63.95 60.8 73.4 0 29.46 1 0 0 NA
View 48572 Jun 8 2014 12:30:22am 89.6 37 56.48 70 64.4 60.8 73.4 0 29.46 1 0 0 NA
View 48571 Jun 8 2014 12:29:21am 89.6 36 56.48 69 64.4 60.8 73.4 0 29.46 1 0 0 NA
View 48570 Jun 8 2014 12:28:20am 89.6 36 56.48 70 64.4 60.8 73.4 0 29.46 1 0 0 NA
View 48569 Jun 8 2014 12:27:20am 89.78 36 56.48 69 64.4 60.8 73.4 0 29.46 1 0 0 NA
View 48568 Jun 8 2014 12:25:03am 89.6 37 56.48 68 64.4 60.8 73.4 0 29.46 1 0 0 NA
View 48567 Jun 8 2014 12:24:02am 89.78 38 56.48 69 64.4 60.8 73.4 0 29.46 1 0 0 NA
View 48566 Jun 8 2014 12:23:00am 89.78 34 56.3 69 64.4 60.8 73.4 0 29.46 1 0 0 NA
View 48565 Jun 8 2014 12:21:59am 89.78 36 56.48 69 64.4 60.8 73.4 0 29.46 1 0 0 NA
View 48564 Jun 8 2014 12:20:59am 89.96 36 56.48 69 64.4 60.8 73.4 0 29.46 1 0 0 NA